Nobel, Canada
Current Conditions -  °F | °C
As of 4:00 AM on Saturday 29 Nov 2014 (Local Time) from CYQA Reporting Station
Overcast Overcast  
Wind Chill: 10°   Ceiling: 8500
Heat Index: 19°   Visibility: 9mi
Dew Point: 16°   Wind: 7mph
Humidity: 86%   Direction: 120°ESE
Pressure: 30.08"   Gusts: NA
Location:  45.41°N, 80.09°W
Report Text: CYQA 290900Z AUTO 12006KT 9SM OVC085 M07/M09 A3008 RMK SLP205
Loading
Personal Weather Stations






























Interactive Weather Map New forecast layout! Learn more

10-Day Weather Forecast

Advertisements
Track Severe Weather on mobile